Alt de Torrimar, Puerto Rico
Current Conditions -  °F | °C
As of 3:56 AM on Friday 19 Dec 2014 (Local Time) from TJSJ Reporting Station
Scattered Clouds Scattered Clouds  
Wind Chill: 74°   Ceiling: Unl
Heat Index: 74°   Visibility: 10mi
Dew Point: 69°   Wind: 0mph
Humidity: 85%   Direction: NA
Pressure: 29.93"   Gusts: NA
Location:  18.3866°N, 66.1135°W
Report Text: TJSJ 190756Z 00000KT 10SM FEW033 SCT043 23/21 A2993 RMK AO2 SLP135 P0001 T02330206
Loading
Personal Weather Stations






























Interactive Weather Map New forecast layout! Learn more

10-Day Weather Forecast

Advertisements
Track Severe Weather on mobile